This is the latest recevied weather packets stored in our database for station/object SP2ARK-10. If no packets are shown the sender has not sent any weather packets the latest 10 day(s).
| Time | Temp. | Humidity | Pressure | Rain* | Wind** | Luminosity | Snow |
|---|---|---|---|---|---|---|---|
| 1777959400 | 17.78° C | 82% | 1016.7 hPa | - | - | - | - |
| 1777958500 | 17.78° C | 82% | 1016.5 hPa | - | - | - | - |
| 1777957599 | 18.33° C | 80% | 1016.4 hPa | - | - | - | - |
| 1777956698 | 18.89° C | 80% | 1016.4 hPa | - | - | - | - |
| 1777955798 | 18.33° C | 80% | 1016.3 hPa | - | - | - | - |
| 1777954896 | 18.33° C | 80% | 1016.4 hPa | - | - | - | - |
| 1777953996 | 18.33° C | 79% | 1016.4 hPa | - | - | - | - |
| 1777941386 | 20.56° C | 71% | 1016.6 hPa | - | - | - | - |
| 1777940485 | 20.56° C | 70% | 1016.6 hPa | - | - | - | - |
| 1777934180 | 21.67° C | 67% | 1016.8 hPa | - | - | - | - |
| 1777931479 | 22.22° C | 66% | 1016.8 hPa | - | - | - | - |
| 1777929677 | 22.78° C | 65% | 1016.8 hPa | - | - | - | - |
| 1777917968 | 24.44° C | 61% | 1016.4 hPa | - | - | - | - |
| 1777916167 | 24.44° C | 60% | 1016.2 hPa | - | - | - | - |
| 1777915266 | 25° C | 59% | 1016 hPa | - | - | - | - |
| 1777912565 | 26.67° C | 56% | 1015.9 hPa | - | - | - | - |
| 1777910764 | 27.22° C | 56% | 1015.9 hPa | - | - | - | - |
| 1777907160 | 27.78° C | 55% | 1016 hPa | - | - | - | - |
| 1777898153 | 26.67° C | 54% | 1016.7 hPa | - | - | - | - |
| 1777897252 | 26.67° C | 54% | 1016.6 hPa | - | - | - | - |
| 1777896351 | 26.11° C | 55% | 1016.7 hPa | - | - | - | - |
| 1777895450 | 26.11° C | 55% | 1016.9 hPa | - | - | - | - |
| 1777894549 | 25.56° C | 55% | 1017 hPa | - | - | - | - |
| 1777893648 | 25° C | 56% | 1017.2 hPa | - | - | - | - |
| 1777892747 | 25° C | 56% | 1017.2 hPa | - | - | - | - |
* Rain since midnight (hover to see other rain measurements)
** Current wind speed in m/s (hover to see current wind gust speed)